Time;durP1;ratioP1;P1;durP2;ratioP2;P2;SDS_P1;SDS_P2;PMS_P1;PMS_P2;Temp;Humidity;BMP_temperature;BMP_pressure;BME280_temperature;BME280_humidity;BME280_pressure;Samples;Min_cycle;Max_cycle;Signal;HPM_P1;HPM_P2
2023/03/18 00:00:42;;;;;;;11.45;4.93;;;;;;;12.72;59.22;99819.28;12910409;22;20091;-71
2023/03/18 00:05:44;;;;;;;12.40;5.55;;;;;;;12.74;59.75;99817.19;12923264;23;20027;-71
2023/03/18 00:10:49;;;;;;;9.55;5.45;;;;;;;12.75;59.30;99826.13;12886640;23;20034;-70
2023/03/18 00:15:51;;;;;;;8.60;5.57;;;;;;;12.72;59.51;99835.44;12914416;23;20029;-72
2023/03/18 00:20:52;;;;;;;10.07;5.25;;;;;;;12.65;59.94;99843.50;12912997;23;20036;-72
2023/03/18 00:25:56;;;;;;;9.88;5.80;;;;;;;12.68;59.51;99843.13;12912404;23;20031;-72
2023/03/18 00:31:07;;;;;;;12.73;5.80;;;;;;;12.72;60.00;99850.78;12859512;23;20025;-72
2023/03/18 00:36:12;;;;;;;9.68;5.45;;;;;;;12.75;59.73;99862.00;12913047;23;20094;-68
2023/03/18 00:41:14;;;;;;;11.10;5.15;;;;;;;12.75;59.36;99862.00;12880347;23;20054;-71
2023/03/18 00:46:26;;;;;;;12.60;6.30;;;;;;;12.65;59.86;99858.84;12912012;23;20078;-71
2023/03/18 00:51:31;;;;;;;16.83;5.85;;;;;;;12.66;59.79;99860.53;12864672;23;20388;-71
2023/03/18 00:56:34;;;;;;;11.23;6.20;;;;;;;12.70;59.98;99862.63;12912839;22;20051;-71
2023/03/18 01:01:37;;;;;;;14.13;6.35;;;;;;;12.66;60.62;99857.84;12879561;23;20074;-67
2023/03/18 01:06:39;;;;;;;13.48;6.63;;;;;;;12.55;61.09;99843.06;12917321;23;20027;-71
2023/03/18 01:11:40;;;;;;;13.65;6.32;;;;;;;12.44;61.89;99852.56;12859776;23;20051;-70
2023/03/18 01:16:42;;;;;;;12.98;7.13;;;;;;;12.34;62.14;99862.03;12907323;23;20102;-71
2023/03/18 01:21:43;;;;;;;13.63;7.38;;;;;;;12.11;63.02;99860.47;12907814;23;20106;-71
2023/03/18 01:26:45;;;;;;;14.50;7.22;;;;;;;12.16;63.29;99859.88;12919479;23;20035;-71
2023/03/18 01:31:47;;;;;;;17.08;9.73;;;;;;;12.09;63.63;99857.16;12909569;23;20028;-68
2023/03/18 01:36:49;;;;;;;19.02;8.65;;;;;;;11.96;64.27;99865.97;12909133;23;20020;-72
2023/03/18 01:41:50;;;;;;;15.10;9.13;;;;;;;11.92;64.90;99864.69;12907125;23;20095;-71
2023/03/18 01:46:52;;;;;;;15.73;8.32;;;;;;;11.83;65.08;99860.47;12912373;23;20036;-71
2023/03/18 01:52:01;;;;;;;14.70;8.27;;;;;;;11.75;65.71;99871.38;12912354;23;20038;-71
2023/03/18 01:57:03;;;;;;;12.95;7.43;;;;;;;11.69;65.60;99871.13;12917656;22;20028;-70
2023/03/18 02:02:10;;;;;;;15.48;9.00;;;;;;;11.66;66.36;99876.06;12907325;23;20028;-68
2023/03/18 02:07:18;;;;;;;15.40;9.77;;;;;;;11.63;66.66;99871.91;12882991;23;20027;-69
2023/03/18 02:12:49;;;;;;;15.50;9.48;;;;;;;11.63;66.57;99865.69;12915753;23;20047;-71
2023/03/18 02:17:57;;;;;;;14.02;9.07;;;;;;;11.63;67.23;99868.38;12907128;23;20472;-71
2023/03/18 02:23:11;;;;;;;15.93;9.65;;;;;;;11.69;67.46;99870.31;12908436;23;20108;-70
2023/03/18 02:28:19;;;;;;;20.48;10.32;;;;;;;11.61;67.68;99856.97;12913565;23;20031;-70
2023/03/18 02:33:25;;;;;;;15.30;10.43;;;;;;;11.59;68.32;99862.56;12883171;23;20028;-70
2023/03/18 02:38:26;;;;;;;19.42;11.13;;;;;;;11.53;68.75;99844.47;12879436;23;20024;-65
2023/03/18 02:43:30;;;;;;;18.40;11.15;;;;;;;11.51;69.24;99860.84;12908235;23;20032;-69
2023/03/18 02:48:36;;;;;;;25.42;11.85;;;;;;;11.37;69.44;99858.22;12880903;23;20074;-69
2023/03/18 02:53:38;;;;;;;19.17;11.70;;;;;;;11.39;70.29;99870.44;12907517;23;20055;-69
2023/03/18 02:58:40;;;;;;;18.55;11.60;;;;;;;11.44;69.89;99873.41;12908940;22;20055;-69
2023/03/18 03:03:42;;;;;;;18.45;11.25;;;;;;;11.42;70.44;99872.75;12908312;23;20031;-68
2023/03/18 03:08:44;;;;;;;21.02;11.95;;;;;;;11.44;70.72;99872.56;12907253;23;20030;-70
2023/03/18 03:13:45;;;;;;;22.08;12.23;;;;;;;11.45;70.83;99885.00;12895146;23;20020;-70
2023/03/18 03:18:47;;;;;;;20.55;12.85;;;;;;;11.43;70.84;99871.75;12908145;23;20074;-68
2023/03/18 03:23:49;;;;;;;20.17;12.35;;;;;;;11.33;71.20;99884.66;12909848;23;20020;-70
2023/03/18 03:28:50;;;;;;;17.73;10.88;;;;;;;11.07;72.31;99898.69;12905999;23;20025;-69
2023/03/18 03:33:52;;;;;;;21.27;10.85;;;;;;;11.10;72.38;99898.31;12906681;23;20024;-68
2023/03/18 03:38:54;;;;;;;19.02;10.93;;;;;;;11.07;72.48;99904.91;12882043;23;20059;-66
2023/03/18 03:43:55;;;;;;;18.17;9.95;;;;;;;10.94;73.05;99915.53;12908497;23;20086;-68
2023/03/18 03:48:57;;;;;;;16.25;10.05;;;;;;;11.02;73.09;99912.72;12911989;23;20028;-69
2023/03/18 03:53:58;;;;;;;20.33;10.55;;;;;;;11.00;73.36;99920.16;12906789;23;20028;-70
2023/03/18 03:59:00;;;;;;;19.35;10.13;;;;;;;11.11;73.06;99926.88;12908064;22;20027;-68
2023/03/18 04:04:02;;;;;;;19.70;10.80;;;;;;;11.11;72.42;99926.88;12909855;23;20035;-68
2023/03/18 04:09:04;;;;;;;20.27;11.32;;;;;;;11.14;73.16;99926.50;12912131;23;20107;-70
2023/03/18 04:14:06;;;;;;;18.33;11.18;;;;;;;11.14;73.26;99909.50;12912293;23;20053;-70
2023/03/18 04:19:08;;;;;;;17.58;11.20;;;;;;;11.16;72.78;99910.16;12911868;23;20473;-70
2023/03/18 04:24:10;;;;;;;16.65;10.82;;;;;;;11.09;73.23;99919.00;12912296;23;20102;-70
2023/03/18 04:29:12;;;;;;;21.63;11.57;;;;;;;10.96;73.33;99909.94;12912361;23;20107;-71
2023/03/18 04:34:13;;;;;;;21.42;11.75;;;;;;;10.95;72.99;99900.22;12911805;23;20453;-71
2023/03/18 04:39:15;;;;;;;20.65;11.10;;;;;;;10.85;73.38;99908.59;12893858;23;20024;-70
2023/03/18 04:44:16;;;;;;;25.30;11.40;;;;;;;10.83;73.07;99910.63;12924265;23;20020;-71
2023/03/18 04:49:18;;;;;;;22.50;11.93;;;;;;;10.71;73.88;99921.03;12909252;23;20024;-69
2023/03/18 04:54:20;;;;;;;20.52;12.30;;;;;;;10.78;73.61;99903.16;12884314;23;20024;-69
2023/03/18 04:59:21;;;;;;;22.67;12.00;;;;;;;10.84;73.87;99910.44;12911682;22;20350;-71
2023/03/18 05:04:23;;;;;;;29.23;13.30;;;;;;;10.88;73.76;99917.13;12913970;23;20032;-69
2023/03/18 05:09:24;;;;;;;20.40;12.32;;;;;;;10.89;73.84;99913.38;12908587;23;20024;-71
2023/03/18 05:14:27;;;;;;;22.08;12.07;;;;;;;10.92;73.47;99914.88;12909309;23;20032;-71
2023/03/18 05:19:29;;;;;;;22.58;13.00;;;;;;;10.91;73.92;99911.34;12910079;23;20074;-71
2023/03/18 05:24:30;;;;;;;20.83;11.68;;;;;;;10.94;73.58;99923.59;12917220;23;20074;-69
2023/03/18 05:29:32;;;;;;;27.50;13.10;;;;;;;10.95;74.09;99925.25;12908645;23;20020;-70
2023/03/18 05:34:36;;;;;;;23.42;12.80;;;;;;;10.95;73.71;99921.72;12910143;23;20028;-71
2023/03/18 05:39:37;;;;;;;24.35;13.45;;;;;;;10.93;73.95;99931.84;12908228;23;20020;-71
2023/03/18 05:44:39;;;;;;;23.55;12.60;;;;;;;11.00;73.72;99928.22;12880580;23;20024;-69
2023/03/18 05:49:41;;;;;;;25.90;12.93;;;;;;;11.03;73.73;99929.69;12910623;23;20055;-70
2023/03/18 05:54:43;;;;;;;21.45;12.70;;;;;;;11.05;73.99;99927.63;12918557;23;20428;-70
2023/03/18 05:59:47;;;;;;;23.63;12.98;;;;;;;11.07;74.12;99936.34;12911415;22;20397;-69
2023/03/18 06:04:48;;;;;;;25.45;13.13;;;;;;;10.97;74.57;99939.34;12894969;23;20024;-68
2023/03/18 06:09:51;;;;;;;26.20;14.00;;;;;;;10.99;74.40;99939.16;12863297;23;20024;-64
2023/03/18 06:14:53;;;;;;;27.95;14.15;;;;;;;11.02;74.46;99946.84;12911509;23;20036;-64
2023/03/18 06:19:55;;;;;;;25.75;13.43;;;;;;;11.08;74.92;99940.72;12910856;23;20098;-65
2023/03/18 06:24:57;;;;;;;26.77;13.60;;;;;;;11.10;75.00;99944.88;12911564;23;20028;-64
2023/03/18 06:30:01;;;;;;;21.35;12.90;;;;;;;11.10;75.13;99941.38;12917889;22;20093;-64
2023/03/18 06:35:04;;;;;;;24.58;13.13;;;;;;;11.10;74.55;99954.81;12975369;22;20026;-64
2023/03/18 06:40:07;;;;;;;19.48;13.00;;;;;;;11.05;74.44;99952.66;12978563;22;20070;-64
2023/03/18 06:45:08;;;;;;;20.05;13.18;;;;;;;11.06;74.72;99958.91;12988268;22;20624;-64
2023/03/18 06:50:10;;;;;;;21.27;13.88;;;;;;;11.07;74.33;99957.88;12977079;22;20030;-63
2023/03/18 06:55:12;;;;;;;21.77;14.48;;;;;;;11.03;74.33;99968.16;12978569;22;20023;-64
2023/03/18 07:00:14;;;;;;;29.02;13.98;;;;;;;11.01;74.42;99956.75;12980076;22;20027;-64
2023/03/18 07:05:16;;;;;;;24.90;13.75;;;;;;;10.99;74.52;99960.69;12952169;22;20657;-63
2023/03/18 07:10:21;;;;;;;25.73;14.50;;;;;;;10.97;74.47;99960.03;12978443;22;20047;-64
2023/03/18 07:15:23;;;;;;;28.67;14.80;;;;;;;10.99;74.63;99968.75;12977782;22;20345;-64
2023/03/18 07:20:24;;;;;;;31.52;16.27;;;;;;;11.02;75.10;99976.41;12977117;22;20050;-64
2023/03/18 07:25:26;;;;;;;23.77;14.45;;;;;;;11.15;74.94;99986.53;12977607;22;20031;-64
2023/03/18 07:30:27;;;;;;;29.65;14.63;;;;;;;11.27;75.39;99988.53;12977366;22;20019;-65
2023/03/18 07:35:29;;;;;;;21.40;12.35;;;;;;;11.34;75.83;99985.09;12977155;22;20085;-63
2023/03/18 07:40:31;;;;;;;18.15;11.15;;;;;;;11.42;75.94;99987.66;12977021;22;20453;-63
2023/03/18 07:45:33;;;;;;;12.27;8.23;;;;;;;11.56;75.85;99975.19;12971350;22;20024;-64
2023/03/18 07:50:35;;;;;;;18.92;7.88;;;;;;;11.79;75.53;99980.34;12976458;22;20097;-63
2023/03/18 07:55:37;;;;;;;12.57;7.10;;;;;;;11.90;75.44;99987.94;12975565;22;20081;-63
2023/03/18 08:00:38;;;;;;;9.68;7.15;;;;;;;11.93;75.60;99992.97;12975428;22;20016;-63
2023/03/18 08:05:40;;;;;;;13.45;6.28;;;;;;;12.08;75.51;99984.78;12973052;22;20051;-64
2023/03/18 08:10:41;;;;;;;13.15;6.65;;;;;;;12.18;74.93;99985.28;12978098;22;20058;-65
2023/03/18 08:15:43;;;;;;;11.30;7.03;;;;;;;12.33;74.51;99995.97;12979378;22;20422;-64
2023/03/18 08:20:44;;;;;;;9.77;6.18;;;;;;;12.45;73.81;100005.16;12979882;22;20019;-64
2023/03/18 08:25:48;;;;;;;8.02;5.53;;;;;;;12.57;73.04;100004.63;12980784;22;20024;-65
2023/03/18 08:30:54;;;;;;;10.55;6.65;;;;;;;12.80;72.02;99998.97;12979992;22;20027;-65
2023/03/18 08:35:58;;;;;;;13.52;6.03;;;;;;;13.01;71.91;99998.88;12981896;22;20062;-66
2023/03/18 08:40:59;;;;;;;8.02;5.47;;;;;;;13.24;71.24;99995.84;12976637;22;20065;-65
2023/03/18 08:46:01;;;;;;;10.55;4.88;;;;;;;13.35;70.61;99993.59;12976156;22;20085;-65
2023/03/18 08:51:04;;;;;;;9.55;4.63;;;;;;;13.62;69.19;99994.50;12974440;22;20086;-66
2023/03/18 08:56:06;;;;;;;8.77;4.63;;;;;;;13.84;68.65;99987.06;12977687;22;20400;-65
2023/03/18 09:01:08;;;;;;;10.05;3.92;;;;;;;13.98;68.14;99993.31;12976921;22;20093;-65
2023/03/18 09:06:12;;;;;;;7.55;3.47;;;;;;;14.22;67.15;99995.41;12955695;22;20123;-65
2023/03/18 09:11:13;;;;;;;5.05;2.75;;;;;;;14.48;66.00;100001.84;13003797;22;20015;-64
2023/03/18 09:16:16;;;;;;;4.00;2.35;;;;;;;14.72;64.88;100003.06;13007591;22;20460;-65
2023/03/18 09:21:18;;;;;;;5.00;2.33;;;;;;;14.83;63.94;100013.25;12957398;22;20332;-65
2023/03/18 09:26:19;;;;;;;7.63;1.83;;;;;;;14.88;62.68;100007.19;12980653;22;20024;-65
2023/03/18 09:31:20;;;;;;;2.03;1.10;;;;;;;15.19;61.32;99990.22;12979800;22;20023;-65
2023/03/18 09:36:22;;;;;;;5.85;2.22;;;;;;;15.62;59.95;99986.84;12982282;22;20027;-66
2023/03/18 09:42:02;;;;;;;3.85;1.50;;;;;;;15.80;59.08;99983.44;12989076;22;20027;-65
2023/03/18 09:47:35;;;;;;;10.25;2.42;;;;;;;16.04;58.27;99986.38;12929711;22;20069;-65
2023/03/18 09:53:03;;;;;;;3.30;1.27;;;;;;;16.24;57.39;100000.59;12945120;22;20534;-67
2023/03/18 09:58:16;;;;;;;3.35;1.17;;;;;;;16.36;56.67;99999.88;12969428;22;20028;-65
2023/03/18 10:03:32;;;;;;;3.53;1.20;;;;;;;16.43;55.82;99998.75;12976848;22;20027;-65
2023/03/18 10:08:46;;;;;;;5.07;2.03;;;;;;;16.56;55.08;99996.97;12945088;22;20081;-65
2023/03/18 10:14:15;;;;;;;6.97;2.58;;;;;;;16.89;54.50;99991.22;12973259;22;20028;-66
2023/03/18 10:19:16;;;;;;;5.82;1.58;;;;;;;17.13;54.08;99991.34;13004108;22;20023;-65
2023/03/18 10:24:37;;;;;;;6.38;2.20;;;;;;;17.47;53.41;99986.31;12995258;22;20081;-65
2023/03/18 10:29:53;;;;;;;2.90;1.73;;;;;;;17.94;52.71;99972.88;12988026;22;20019;-65
2023/03/18 10:35:02;;;;;;;5.43;1.98;;;;;;;18.35;52.24;99984.78;12987295;22;20023;-66
2023/03/18 10:40:16;;;;;;;4.80;1.60;;;;;;;18.68;50.96;99977.88;12992094;22;20050;-68
2023/03/18 10:45:23;;;;;;;2.70;1.98;;;;;;;19.00;50.17;99981.06;12985407;22;20019;-66
2023/03/18 10:50:53;;;;;;;6.57;2.17;;;;;;;19.15;49.29;99973.16;13008852;22;20026;-65
2023/03/18 10:56:07;;;;;;;6.22;1.50;;;;;;;19.47;48.96;99975.44;12944938;22;20011;-65
2023/03/18 11:01:13;;;;;;;7.15;1.92;;;;;;;19.49;48.40;99973.31;13018596;22;20065;-65
2023/03/18 11:06:24;;;;;;;5.47;1.13;;;;;;;19.62;47.81;99967.53;13020889;22;20027;-65
2023/03/18 11:11:33;;;;;;;;;;;;;;;19.73;49.79;99965.84;13001209;22;20027;-66
2023/03/18 11:16:41;;;;;;;4.40;2.05;;;;;;;20.03;48.12;99967.44;12992016;22;19919;-66
2023/03/18 11:21:43;;;;;;;6.10;1.05;;;;;;;20.07;47.49;99965.88;13001140;22;20027;-66
2023/03/18 11:26:56;;;;;;;2.63;0.88;;;;;;;20.13;46.07;99973.06;12956756;22;20035;-66
2023/03/18 11:32:00;;;;;;;5.70;1.08;;;;;;;19.91;46.34;99972.16;12984217;22;20120;-66
2023/03/18 11:37:04;;;;;;;1.95;0.80;;;;;;;20.27;46.44;99965.34;12989704;22;20023;-65
2023/03/18 11:42:20;;;;;;;3.88;1.45;;;;;;;20.45;45.25;99952.50;12966561;22;20023;-67
2023/03/18 11:47:27;;;;;;;2.15;0.90;;;;;;;20.60;45.41;99966.44;13001996;22;20024;-66
2023/03/18 11:52:39;;;;;;;;;;;;;;;20.60;46.72;99960.97;12999369;22;20028;-67
2023/03/18 11:57:58;;;;;;;2.53;0.70;;;;;;;20.97;44.80;99963.91;12989781;22;19915;-65
2023/03/18 12:03:17;;;;;;;3.63;1.20;;;;;;;21.34;43.95;99952.28;12956014;22;20027;-65
2023/03/18 12:08:46;;;;;;;4.72;1.20;;;;;;;21.51;43.83;99959.63;13018068;22;20033;-65
2023/03/18 12:14:24;;;;;;;3.45;0.75;;;;;;;21.54;43.03;99959.94;13022296;22;20039;-67
2023/03/18 12:19:54;;;;;;;3.30;0.82;;;;;;;21.37;43.42;99957.25;12912439;22;20444;-66
2023/03/18 12:25:16;;;;;;;3.67;0.95;;;;;;;20.99;43.22;99941.78;12948210;22;20031;-67
2023/03/18 12:30:35;;;;;;;4.82;1.10;;;;;;;20.84;43.61;99938.88;12980144;22;20054;-67
2023/03/18 12:35:53;;;;;;;4.10;0.95;;;;;;;20.88;43.02;99937.28;12976272;22;20073;-67
2023/03/18 12:41:00;;;;;;;2.33;0.60;;;;;;;20.95;42.73;99929.69;12976073;22;20027;-68
2023/03/18 12:46:16;;;;;;;2.60;0.50;;;;;;;21.18;42.61;99929.44;12926752;22;20085;-65
2023/03/18 12:51:25;;;;;;;3.60;0.70;;;;;;;21.20;42.45;99934.66;12951858;22;20019;-66
2023/03/18 12:56:29;;;;;;;2.38;0.98;;;;;;;21.01;42.55;99928.72;12977670;22;20028;-66
2023/03/18 13:01:48;;;;;;;4.57;1.13;;;;;;;20.84;42.73;99923.31;12976610;22;20390;-66
2023/03/18 13:07:14;;;;;;;4.00;0.70;;;;;;;21.04;42.26;99925.44;12957137;22;20061;-66
2023/03/18 13:12:37;;;;;;;1.43;0.70;;;;;;;21.19;42.05;99914.69;12951419;22;20513;-67
2023/03/18 13:17:43;;;;;;;3.15;0.90;;;;;;;21.43;41.57;99903.47;12950876;22;20026;-66
2023/03/18 13:23:02;;;;;;;3.17;0.50;;;;;;;21.67;40.62;99908.63;12950162;22;20077;-65
2023/03/18 13:28:35;;;;;;;5.25;0.68;;;;;;;21.48;40.85;99897.22;12925221;22;20482;-68
2023/03/18 13:33:40;;;;;;;1.52;0.60;;;;;;;22.05;40.18;99909.44;12976397;22;20023;-66
2023/03/18 13:39:07;;;;;;;1.65;0.73;;;;;;;21.56;39.20;99900.31;12972810;22;20019;-66
2023/03/18 13:44:16;;;;;;;1.80;0.40;;;;;;;21.92;39.12;99899.75;12975384;22;20027;-66
2023/03/18 13:49:22;;;;;;;1.98;0.55;;;;;;;22.11;38.51;99897.44;12943213;22;20024;-66
2023/03/18 13:54:33;;;;;;;2.28;0.40;;;;;;;21.97;38.55;99889.69;12976132;22;20046;-67
2023/03/18 13:59:35;;;;;;;2.92;0.65;;;;;;;21.89;38.52;99887.44;12946996;22;20106;-67
2023/03/18 14:04:50;;;;;;;4.57;0.50;;;;;;;21.87;38.41;99875.13;12973643;22;20023;-67
2023/03/18 14:10:00;;;;;;;3.58;0.60;;;;;;;21.80;37.89;99891.78;12971381;22;20106;-66
2023/03/18 14:15:35;;;;;;;;;;;;;;;21.45;39.24;99890.38;12971530;22;20364;-68
2023/03/18 14:20:40;;;;;;;;;;;;;;;21.27;39.99;99886.06;12973781;22;20005;-67
2023/03/18 14:25:43;;;;;;;4.32;0.60;;;;;;;21.32;39.62;99888.00;12973066;22;20282;-67
2023/03/18 14:30:57;;;;;;;2.50;0.50;;;;;;;21.19;39.35;99884.63;12945834;22;20038;-68
2023/03/18 14:36:08;;;;;;;2.15;0.60;;;;;;;21.34;39.31;99874.91;12971786;22;20016;-66
2023/03/18 14:41:20;;;;;;;1.98;0.50;;;;;;;21.41;38.50;99875.53;12946221;22;20023;-67
2023/03/18 14:46:26;;;;;;;4.10;0.70;;;;;;;20.97;39.27;99879.19;12972707;22;20558;-67
2023/03/18 14:51:31;;;;;;;2.10;0.50;;;;;;;20.99;39.32;99870.72;12971866;22;20459;-68
2023/03/18 14:56:39;;;;;;;3.60;1.35;;;;;;;20.94;39.15;99865.22;12973144;22;20019;-67
2023/03/18 15:01:46;;;;;;;1.70;0.60;;;;;;;20.54;39.80;99858.16;12972095;22;20019;-66
2023/03/18 15:06:49;;;;;;;4.25;0.50;;;;;;;20.63;40.11;99867.56;12971802;22;20078;-68
2023/03/18 15:11:51;;;;;;;4.75;0.60;;;;;;;20.41;40.35;99882.00;12973045;22;20020;-67
2023/03/18 15:16:55;;;;;;;2.42;0.70;;;;;;;20.31;39.98;99875.59;12973635;22;20028;-66
2023/03/18 15:22:03;;;;;;;1.38;0.80;;;;;;;20.06;40.90;99870.59;12945219;22;20032;-68
2023/03/18 15:27:14;;;;;;;6.25;0.80;;;;;;;19.85;41.13;99864.84;12972385;22;20475;-67
2023/03/18 15:32:24;;;;;;;2.97;0.65;;;;;;;20.00;41.02;99867.81;12982683;22;20093;-66
2023/03/18 15:37:41;;;;;;;3.85;0.50;;;;;;;19.73;40.94;99859.50;12972346;22;20071;-66
2023/03/18 15:42:44;;;;;;;3.65;0.70;;;;;;;19.58;41.71;99857.28;12972620;22;20034;-67
2023/03/18 15:47:46;;;;;;;4.40;0.88;;;;;;;19.47;41.57;99863.66;12974596;22;20046;-68
2023/03/18 15:52:48;;;;;;;3.50;0.60;;;;;;;19.25;42.03;99865.44;12955842;22;20030;-67
2023/03/18 15:57:52;;;;;;;3.25;0.60;;;;;;;19.22;42.29;99861.31;12988713;22;20023;-67
2023/03/18 16:02:53;;;;;;;2.40;0.70;;;;;;;19.27;42.25;99855.13;12956332;22;20043;-67
2023/03/18 16:07:55;;;;;;;1.00;0.50;;;;;;;19.29;42.52;99855.69;12949723;22;20050;-67
2023/03/18 16:13:01;;;;;;;5.57;0.60;;;;;;;19.37;42.17;99856.16;12981069;22;20019;-68
2023/03/18 16:18:02;;;;;;;4.57;0.90;;;;;;;19.61;41.75;99856.81;12975807;22;20027;-69
2023/03/18 16:23:04;;;;;;;6.88;0.82;;;;;;;19.92;41.54;99851.84;12976531;22;20027;-67
2023/03/18 16:28:06;;;;;;;5.70;1.60;;;;;;;20.03;41.34;99852.03;12946390;22;20030;-68
2023/03/18 16:33:15;;;;;;;3.45;0.60;;;;;;;19.74;41.43;99849.41;12972466;22;20027;-68
2023/03/18 16:38:16;;;;;;;3.50;1.20;;;;;;;19.09;43.80;99850.72;12948627;22;20020;-66
2023/03/18 16:43:21;;;;;;;3.90;0.82;;;;;;;19.10;44.34;99852.38;12974625;22;20077;-67
2023/03/18 16:48:22;;;;;;;5.40;0.90;;;;;;;19.21;43.83;99852.31;12973345;22;20020;-66
2023/03/18 16:53:27;;;;;;;6.55;0.70;;;;;;;19.58;43.66;99856.47;12973718;22;20103;-68
2023/03/18 16:58:32;;;;;;;3.90;0.80;;;;;;;19.85;43.06;99856.66;12945192;22;20031;-67
2023/03/18 17:03:35;;;;;;;5.15;0.57;;;;;;;19.48;43.22;99870.75;12973217;22;20022;-67
2023/03/18 17:08:37;;;;;;;6.47;0.80;;;;;;;19.36;43.28;99859.94;12972894;22;20455;-68
2023/03/18 17:13:39;;;;;;;2.70;0.73;;;;;;;19.46;42.98;99872.09;12971738;22;20035;-66
2023/03/18 17:18:40;;;;;;;4.63;0.85;;;;;;;19.59;42.63;99875.31;12974391;22;20020;-67
2023/03/18 17:23:41;;;;;;;4.07;1.35;;;;;;;19.59;42.58;99878.06;12984293;22;20072;-68
2023/03/18 17:28:46;;;;;;;8.85;1.00;;;;;;;19.57;42.77;99879.38;12947318;22;20028;-67
2023/03/18 17:33:47;;;;;;;5.65;2.15;;;;;;;19.46;42.71;99886.53;12976939;22;20019;-68
2023/03/18 17:38:55;;;;;;;9.43;2.28;;;;;;;19.33;43.15;99884.13;12947485;22;20024;-67
2023/03/18 17:43:56;;;;;;;13.02;4.22;;;;;;;19.12;43.88;99897.38;12970963;22;20023;-68
2023/03/18 17:48:58;;;;;;;8.48;3.38;;;;;;;18.91;44.64;99893.44;12971142;22;20326;-68
2023/03/18 17:54:01;;;;;;;9.85;3.47;;;;;;;18.69;45.25;99895.13;12946951;22;20085;-68
2023/03/18 17:59:04;;;;;;;8.98;3.17;;;;;;;18.42;45.51;99899.22;12944002;22;20032;-68
2023/03/18 18:04:12;;;;;;;8.68;3.50;;;;;;;18.20;46.23;99906.31;12971583;22;20085;-68
2023/03/18 18:09:14;;;;;;;10.73;5.10;;;;;;;17.99;46.92;99903.13;12945846;22;20031;-68
2023/03/18 18:14:26;;;;;;;9.15;4.03;;;;;;;17.78;47.59;99898.22;12973698;22;20024;-68
2023/03/18 18:19:27;;;;;;;12.25;4.10;;;;;;;17.56;48.39;99908.84;12945027;22;20034;-68
2023/03/18 18:24:32;;;;;;;10.77;4.35;;;;;;;17.30;49.10;99907.31;12972521;22;20134;-69
2023/03/18 18:29:33;;;;;;;7.38;3.15;;;;;;;17.08;49.77;99898.88;12972512;22;20027;-68
2023/03/18 18:34:35;;;;;;;13.52;4.03;;;;;;;16.88;50.45;99902.66;12945142;22;20024;-69
2023/03/18 18:39:36;;;;;;;12.20;3.92;;;;;;;16.66;51.03;99903.09;12972123;22;20027;-68
2023/03/18 18:44:39;;;;;;;14.38;7.40;;;;;;;16.47;51.71;99906.91;12973513;22;20023;-68
2023/03/18 18:49:40;;;;;;;11.95;3.45;;;;;;;16.16;52.21;99914.09;12945303;22;20077;-68
2023/03/18 18:54:42;;;;;;;19.73;6.75;;;;;;;16.11;52.30;99911.22;12920614;22;20027;-69
2023/03/18 18:59:43;;;;;;;14.68;6.00;;;;;;;15.94;52.82;99910.16;12945429;22;20031;-68
2023/03/18 19:04:45;;;;;;;10.57;5.72;;;;;;;15.83;53.16;99906.25;12969529;22;20023;-68
2023/03/18 19:09:46;;;;;;;11.00;3.20;;;;;;;15.69;53.56;99910.09;12944531;22;20024;-67
2023/03/18 19:14:48;;;;;;;11.50;5.93;;;;;;;15.48;54.25;99912.13;12972405;22;20028;-68
2023/03/18 19:19:51;;;;;;;11.40;6.57;;;;;;;15.33;54.69;99920.56;12967468;22;20029;-68
2023/03/18 19:24:53;;;;;;;8.73;4.18;;;;;;;15.32;54.62;99926.19;12971030;22;20023;-71
2023/03/18 19:29:57;;;;;;;11.65;5.45;;;;;;;15.24;54.81;99932.69;12985977;22;20640;-68
2023/03/18 19:34:59;;;;;;;10.77;4.40;;;;;;;15.10;55.19;99928.41;12988234;22;20027;-69
2023/03/18 19:40:13;;;;;;;9.40;3.45;;;;;;;14.95;55.63;99929.50;13011599;22;20007;-67
2023/03/18 19:45:15;;;;;;;6.97;2.78;;;;;;;14.83;55.71;99937.47;13016430;22;20031;-68
2023/03/18 19:50:19;;;;;;;5.82;2.85;;;;;;;14.49;56.39;99930.47;13009440;22;20034;-69
2023/03/18 19:55:22;;;;;;;6.57;3.47;;;;;;;14.56;55.89;99936.72;12977848;22;20027;-70
2023/03/18 20:00:24;;;;;;;11.25;4.35;;;;;;;14.51;56.29;99938.38;12973449;22;20136;-67
2023/03/18 20:05:26;;;;;;;8.43;2.45;;;;;;;14.40;56.75;99948.78;12961197;22;20058;-72
2023/03/18 20:10:28;;;;;;;6.40;2.78;;;;;;;14.40;56.25;99956.09;13004012;22;20004;-68
2023/03/18 20:15:30;;;;;;;5.95;2.88;;;;;;;14.39;56.71;99963.34;12999783;22;20043;-71
2023/03/18 20:20:32;;;;;;;7.03;3.83;;;;;;;14.34;57.00;99960.47;13013764;22;20023;-69
2023/03/18 20:25:37;;;;;;;11.38;3.78;;;;;;;14.09;57.29;99961.09;13024153;22;20023;-68
2023/03/18 20:30:39;;;;;;;13.65;4.63;;;;;;;13.98;57.52;99960.88;13017010;22;20093;-71
2023/03/18 20:35:43;;;;;;;9.23;3.53;;;;;;;13.98;57.42;99959.03;12971910;22;20027;-72
2023/03/18 20:40:48;;;;;;;9.60;4.20;;;;;;;13.94;57.66;99965.03;12979915;22;20034;-71
2023/03/18 20:45:50;;;;;;;8.48;3.45;;;;;;;13.84;57.92;99969.00;12982852;22;20479;-70
2023/03/18 20:50:53;;;;;;;7.50;3.53;;;;;;;13.73;58.42;99976.88;12971815;22;20019;-70
2023/03/18 20:55:55;;;;;;;8.70;3.85;;;;;;;13.71;58.36;99973.56;12971433;22;20093;-70
2023/03/18 21:00:56;;;;;;;8.25;3.85;;;;;;;13.77;58.10;99976.25;12978724;22;20015;-71
2023/03/18 21:06:02;;;;;;;7.07;3.80;;;;;;;13.76;58.44;99968.34;12976761;22;20106;-71
2023/03/18 21:11:04;;;;;;;10.57;5.40;;;;;;;13.77;58.63;99975.44;12944641;22;20037;-72
2023/03/18 21:16:10;;;;;;;13.75;5.45;;;;;;;13.73;58.72;99977.72;12971986;22;20028;-70
2023/03/18 21:21:23;;;;;;;8.97;4.50;;;;;;;13.76;58.86;99979.16;12972365;22;20020;-73
2023/03/18 21:26:25;;;;;;;8.90;5.22;;;;;;;13.74;58.96;99986.66;12957704;22;20250;-73
2023/03/18 21:31:31;;;;;;;11.90;5.53;;;;;;;13.63;59.12;99983.50;12972771;22;20065;-74
2023/03/18 21:36:33;;;;;;;6.97;4.47;;;;;;;13.39;59.42;99973.25;12972857;22;20039;-72
2023/03/18 21:41:35;;;;;;;12.43;5.50;;;;;;;13.49;59.45;99981.84;12970527;22;20019;-72
2023/03/18 21:46:36;;;;;;;11.75;5.47;;;;;;;13.51;59.50;99981.59;12969397;22;20023;-68
2023/03/18 21:51:37;;;;;;;10.48;5.28;;;;;;;13.48;59.15;99978.28;12941685;22;20317;-73
2023/03/18 21:56:40;;;;;;;72.38;29.23;;;;;;;13.46;59.58;99980.34;12943880;22;20024;-70
2023/03/18 22:01:42;;;;;;;34.85;15.20;;;;;;;13.55;59.22;99969.38;12978513;22;20085;-71
2023/03/18 22:06:43;;;;;;;12.20;6.78;;;;;;;13.60;59.27;99966.88;13001630;22;20027;-71
2023/03/18 22:11:44;;;;;;;13.73;6.30;;;;;;;13.50;59.44;99964.56;12979247;22;20288;-72
2023/03/18 22:16:46;;;;;;;7.45;4.65;;;;;;;13.56;59.39;99966.47;12946476;22;20031;-70
2023/03/18 22:21:47;;;;;;;9.30;3.92;;;;;;;13.61;59.29;99963.97;13000988;22;20137;-68
2023/03/18 22:26:49;;;;;;;7.90;4.15;;;;;;;13.66;59.15;99966.06;12989659;22;20028;-70
2023/03/18 22:31:50;;;;;;;10.90;5.45;;;;;;;13.68;59.28;99967.53;12988830;22;20070;-69
2023/03/18 22:36:52;;;;;;;11.35;4.15;;;;;;;13.75;59.34;99961.31;12998309;22;20452;-70
2023/03/18 22:41:53;;;;;;;6.55;4.25;;;;;;;13.74;59.20;99963.16;12987028;22;20015;-71
2023/03/18 22:46:55;;;;;;;8.75;4.20;;;;;;;13.76;59.45;99977.28;12947102;22;20027;-70
2023/03/18 22:51:56;;;;;;;10.07;4.72;;;;;;;13.75;60.02;99967.53;12972667;22;20385;-70
2023/03/18 22:56:58;;;;;;;7.70;4.57;;;;;;;13.71;60.21;99968.16;12979761;22;20089;-74
2023/03/18 23:01:59;;;;;;;12.43;5.22;;;;;;;13.62;60.26;99984.53;12972451;22;20027;-71
2023/03/18 23:07:00;;;;;;;10.65;4.53;;;;;;;13.59;60.49;99982.25;12981446;22;20023;-71
2023/03/18 23:12:02;;;;;;;10.23;4.45;;;;;;;13.65;60.35;99988.72;12972314;22;20034;-71
2023/03/18 23:17:03;;;;;;;10.02;4.70;;;;;;;13.66;60.72;99990.38;12967632;22;20019;-73
2023/03/18 23:22:05;;;;;;;8.50;4.50;;;;;;;13.66;60.60;99988.53;12967854;22;20437;-72
2023/03/18 23:27:07;;;;;;;13.30;4.82;;;;;;;13.67;61.10;99984.78;12967813;22;20042;-71